Quick Links (Output Below):   Max & Min Temps   /   Climate Reports   /   Zone Forecasts
River Forecasts   /   Forestry Forecasts   /   Aviation Forecasts   /   Radars   /   Features

Terminal Aerodrome Forecast (Harrison)

Pick a Site:
Arkadelphia | El Dorado | Fayetteville | Fort Smith | Harrison | Highfill | Hot Springs | Jonesboro
Little Rock | Monticello | Mountain Home | Pine Bluff | Texarkana
 Forecast 

KHRO 072320Z 0800/0824 30010G16KT P6SM BKN250
     FM080600 30010G18KT P6SM BKN035 OVC100
     FM081200 30015G25KT P6SM BKN025 OVC050=


 Latest METARs (Observations) 
How to Decode METARs
02Z KHRO 080153Z AUTO 28006KT 10SM CLR 07/M05 A3003 RMK AO2 SLP171
         T00721050
         
01Z KHRO 080053Z AUTO 30005KT 10SM CLR 07/M05 A3003 RMK AO2 SLP174
         T00721050
         
00Z KHRO 072353Z AUTO 30009G17KT 10SM CLR 09/M05 A3003 RMK AO2 SLP171
         T00941050 10128 20094 53001
         
***** Today's Observations (Above) *****


23Z KHRO 072253Z AUTO 30008G15KT 10SM CLR 11/M03 A3002 RMK AO2 SLP168
         T01061033
         
22Z KHRO 072153Z AUTO 30010KT 260V330 10SM CLR 11/M03 A3002 RMK AO2
         SLP166 T01111028
         
21Z KHRO 072053Z AUTO 29010G22KT 10SM CLR 12/M02 A3002 RMK AO2 SLP167
         T01221017 55015
         
20Z KHRO 071953Z AUTO 25013G23KT 10SM CLR 13/M03 A3001 RMK AO2 SLP163
         T01281028
         
19Z KHRO 071853Z AUTO 24013G22KT 10SM CLR 12/M04 A3003 RMK AO2 SLP170
         T01171039
         
18Z KHRO 071753Z AUTO 27013G20KT 10SM CLR 11/M04 A3007 RMK AO2 SLP184
         T01111044 10111 20006 58009
         
17Z KHRO 071653Z AUTO 27010G15KT 10SM CLR 11/M03 A3009 RMK AO2 SLP190
         T01111033
         
***** Yesterday's Observations (Above) *****


Back to Main Page
http://www.srh.noaa.gov/lzk/qfcst.php

USA.gov is the U.S. government's official web portal to all federal, state and local government web resources and services.